Time;durP1;ratioP1;P1;durP2;ratioP2;P2;SDS_P1;SDS_P2;PMS_P1;PMS_P2;Temp;Humidity;BMP_temperature;BMP_pressure;BME280_temperature;BME280_humidity;BME280_pressure;Samples;Min_cycle;Max_cycle;Signal;HPM_P1;HPM_P2
2022/01/23 00:02:34;;;;;;;41.03;20.63;;;7.80;99.90;;;;;;5094631;28;20191;-60
2022/01/23 00:05:07;;;;;;;40.37;20.27;;;7.80;99.90;;;;;;5083206;28;20196;-60
2022/01/23 00:07:34;;;;;;;40.50;19.97;;;7.80;99.90;;;;;;5067964;28;20188;-60
2022/01/23 00:10:01;;;;;;;42.37;21.00;;;7.80;99.90;;;;;;5076754;28;20622;-59
2022/01/23 00:12:30;;;;;;;40.53;20.80;;;7.80;99.90;;;;;;5094784;28;20622;-59
2022/01/23 00:17:40;;;;;;;41.47;20.77;;;7.80;99.90;;;;;;5068374;28;20196;-59
2022/01/23 00:20:08;;;;;;;38.90;20.40;;;7.70;99.90;;;;;;5075635;28;20552;-60
2022/01/23 00:22:46;;;;;;;43.47;22.67;;;7.80;99.90;;;;;;5076545;28;20626;-59
2022/01/23 00:30:45;;;;;;;36.93;19.70;;;7.90;99.90;;;;;;5077896;28;20195;-59
2022/01/23 00:33:12;;;;;;;37.83;20.50;;;7.90;99.90;;;;;;5094588;28;20540;-60
2022/01/23 00:35:40;;;;;;;33.17;19.63;;;7.90;99.90;;;;;;5094073;28;20281;-60
2022/01/23 00:38:08;;;;;;;39.77;20.77;;;8.00;99.90;;;;;;5094418;28;20260;-59
2022/01/23 00:40:35;;;;;;;39.93;19.50;;;8.10;99.90;;;;;;5075940;28;20272;-59
2022/01/23 00:43:06;;;;;;;39.50;20.50;;;8.00;99.90;;;;;;5081509;28;20220;-59
2022/01/23 00:45:41;;;;;;;42.83;20.33;;;8.00;99.90;;;;;;5074871;28;20185;-59
2022/01/23 00:48:08;;;;;;;33.70;18.30;;;7.90;99.90;;;;;;5093665;28;20180;-59
2022/01/23 00:50:37;;;;;;;32.07;17.73;;;7.80;99.90;;;;;;5076520;28;20185;-60
2022/01/23 00:53:05;;;;;;;39.00;19.47;;;7.90;99.90;;;;;;5076103;28;20338;-60
2022/01/23 00:55:31;;;;;;;38.00;19.10;;;7.80;99.90;;;;;;5087423;28;20662;-60
2022/01/23 00:57:56;;;;;;;36.20;18.90;;;7.90;99.90;;;;;;5089894;28;20185;-59
2022/01/23 01:00:23;;;;;;;38.20;19.13;;;8.00;99.90;;;;;;5092662;28;20185;-59
2022/01/23 01:02:49;;;;;;;35.87;19.03;;;7.80;99.90;;;;;;5072327;28;20201;-59
2022/01/23 01:05:15;;;;;;;45.30;21.30;;;7.70;99.90;;;;;;5083727;28;20216;-60
2022/01/23 01:07:41;;;;;;;37.00;18.47;;;7.90;99.90;;;;;;5088907;28;20626;-59
2022/01/23 01:10:13;;;;;;;38.90;20.03;;;8.00;99.90;;;;;;5081869;28;20189;-60
2022/01/23 01:12:45;;;;;;;37.97;20.57;;;8.00;99.90;;;;;;5060305;28;20188;-60
2022/01/23 01:36:17;;;;;;;42.50;20.00;;;7.80;99.90;;;;;;5074229;28;20189;-59
2022/01/23 01:38:43;;;;;;;39.00;18.87;;;7.70;99.90;;;;;;5087352;28;20181;-59
2022/01/23 01:41:08;;;;;;;37.37;19.03;;;7.70;99.90;;;;;;5093518;28;20499;-59
2022/01/23 01:43:37;;;;;;;36.27;19.23;;;7.70;99.90;;;;;;5075248;28;20543;-59
2022/01/23 01:46:03;;;;;;;41.63;21.90;;;7.70;99.90;;;;;;5059194;28;20180;-59
2022/01/23 01:48:29;;;;;;;37.83;19.43;;;7.70;99.90;;;;;;5067568;28;21036;-60
2022/01/23 01:50:56;;;;;;;34.83;19.07;;;7.70;99.90;;;;;;5076071;28;20181;-59
2022/01/23 01:53:25;;;;;;;42.67;20.33;;;7.70;99.90;;;;;;5091071;28;20182;-59
2022/01/23 01:55:54;;;;;;;39.10;19.30;;;7.70;99.90;;;;;;5055972;28;20627;-59
2022/01/23 01:58:56;;;;;;;33.50;18.37;;;7.90;99.90;;;;;;5092697;28;20177;-59
2022/01/23 02:09:44;;;;;;;35.30;19.03;;;7.70;99.90;;;;;;5092254;28;20187;-60
2022/01/23 02:17:25;;;;;;;42.63;22.20;;;7.70;99.90;;;;;;5061081;28;20193;-60
2022/01/23 02:22:55;;;;;;;34.20;19.47;;;7.70;99.90;;;;;;5083706;28;20233;-59
2022/01/23 02:57:52;;;;;;;43.43;21.50;;;7.70;99.90;;;;;;5084867;28;20188;-61
2022/01/23 03:00:20;;;;;;;47.13;20.63;;;7.70;99.90;;;;;;5081104;28;20319;-59
2022/01/23 03:02:50;;;;;;;45.83;22.70;;;7.80;99.90;;;;;;5073154;28;20181;-58
2022/01/23 03:05:34;;;;;;;44.50;21.53;;;7.80;99.90;;;;;;5072881;28;20538;-59
2022/01/23 03:10:40;;;;;;;38.17;20.30;;;7.80;99.90;;;;;;5092423;28;20188;-59
2022/01/23 03:24:19;;;;;;;46.67;21.60;;;7.80;99.90;;;;;;5093390;28;20235;-59
2022/01/23 03:27:26;;;;;;;42.93;22.30;;;7.80;99.90;;;;;;5095892;28;20186;-59
2022/01/23 03:32:25;;;;;;;48.27;21.47;;;7.70;99.90;;;;;;5075436;28;20193;-59
2022/01/23 03:34:50;;;;;;;38.23;21.03;;;7.70;99.90;;;;;;5095758;28;20215;-59
2022/01/23 03:37:16;;;;;;;46.67;23.03;;;7.70;99.90;;;;;;5092107;28;20178;-59
2022/01/23 03:39:42;;;;;;;46.23;21.87;;;7.60;99.90;;;;;;5059734;28;20173;-59
2022/01/23 03:42:09;;;;;;;43.50;21.63;;;7.70;99.90;;;;;;5077353;28;20188;-59
2022/01/23 03:44:40;;;;;;;43.60;22.13;;;7.60;99.90;;;;;;5086841;28;20239;-60
2022/01/23 03:50:10;;;;;;;41.03;22.00;;;7.50;99.90;;;;;;5013513;28;20194;-59
2022/01/23 03:52:37;;;;;;;41.30;20.07;;;7.60;99.90;;;;;;5079617;28;20196;-59
2022/01/23 03:55:06;;;;;;;51.93;22.47;;;7.60;99.90;;;;;;5076566;28;20217;-66
2022/01/23 03:57:32;;;;;;;44.73;22.37;;;7.80;99.90;;;;;;5093873;28;20208;-59
2022/01/23 03:59:58;;;;;;;37.67;20.90;;;7.90;99.90;;;;;;5076925;28;20184;-59
2022/01/23 04:02:23;;;;;;;40.97;21.80;;;7.80;99.90;;;;;;5091624;28;20191;-59
2022/01/23 04:04:49;;;;;;;39.97;22.27;;;7.70;99.90;;;;;;5041755;28;20209;-59
2022/01/23 04:07:25;;;;;;;40.83;22.73;;;7.80;99.90;;;;;;5094335;28;20629;-59
2022/01/23 04:09:51;;;;;;;44.50;23.83;;;7.90;99.90;;;;;;5094460;28;20196;-59
2022/01/23 04:12:37;;;;;;;40.67;21.77;;;7.80;99.90;;;;;;5076499;28;20552;-59
2022/01/23 04:20:34;;;;;;;42.77;24.67;;;7.70;99.90;;;;;;5076172;28;20220;-59
2022/01/23 05:01:16;;;;;;;41.80;22.23;;;7.70;99.90;;;;;;5082995;28;20199;-59
2022/01/23 05:06:24;;;;;;;44.97;21.80;;;7.70;99.90;;;;;;5078122;28;20227;-59
2022/01/23 05:08:50;;;;;;;49.37;24.33;;;7.80;99.90;;;;;;5087030;28;20192;-59
2022/01/23 05:11:16;;;;;;;42.90;22.90;;;7.60;99.90;;;;;;5084462;28;20276;-59
2022/01/23 05:13:42;;;;;;;45.77;20.90;;;7.60;99.90;;;;;;5093492;28;20184;-64
2022/01/23 05:16:09;;;;;;;50.13;23.67;;;7.70;99.90;;;;;;5057401;28;20237;-59
2022/01/23 05:18:36;;;;;;;51.63;23.50;;;7.70;99.90;;;;;;5080329;28;20180;-60
2022/01/23 05:21:41;;;;;;;48.63;24.10;;;7.70;99.90;;;;;;5075997;28;20279;-59
2022/01/23 05:23:52;;;;;;;46.33;23.20;;;7.70;99.90;;;;;;5092222;28;20199;-63
2022/01/23 05:26:17;;;;;;;45.57;22.03;;;7.70;99.90;;;;;;5077422;28;20541;-59
2022/01/23 05:28:43;;;;;;;42.10;22.10;;;7.80;99.90;;;;;;5093278;28;20601;-59
2022/01/23 05:31:09;;;;;;;41.33;21.80;;;7.70;99.90;;;;;;5093302;28;20590;-60
2022/01/23 05:33:34;;;;;;;48.60;24.77;;;7.80;99.90;;;;;;5080112;28;20263;-59
2022/01/23 05:36:00;;;;;;;49.03;22.37;;;7.80;99.90;;;;;;5075369;28;20208;-59
2022/01/23 05:38:26;;;;;;;44.60;23.67;;;7.80;99.90;;;;;;5089193;28;20231;-59
2022/01/23 05:40:57;;;;;;;44.13;23.40;;;7.70;99.90;;;;;;5073723;28;20207;-64
2022/01/23 05:43:23;;;;;;;47.03;23.43;;;7.70;99.90;;;;;;5093562;28;20566;-60
2022/01/23 05:45:49;;;;;;;47.30;23.67;;;7.70;99.90;;;;;;5094209;28;20210;-59
2022/01/23 05:48:15;;;;;;;46.60;22.07;;;8.00;99.90;;;;;;5075825;28;20637;-59
2022/01/23 05:50:41;;;;;;;46.63;22.90;;;7.90;99.90;;;;;;5089521;28;20216;-64
2022/01/23 05:53:07;;;;;;;47.00;24.63;;;7.80;99.90;;;;;;5063064;28;20180;-59
2022/01/23 05:55:33;;;;;;;42.67;22.20;;;7.60;99.90;;;;;;5082955;28;20216;-59
2022/01/23 05:57:58;;;;;;;46.43;24.60;;;7.60;99.90;;;;;;5092890;28;20223;-59
2022/01/23 06:00:24;;;;;;;46.90;22.57;;;7.70;99.90;;;;;;5092565;28;20177;-60
2022/01/23 06:02:50;;;;;;;47.57;24.80;;;7.70;99.90;;;;;;5074989;28;20185;-59
2022/01/23 06:05:16;;;;;;;45.67;23.10;;;7.60;99.90;;;;;;5074526;28;20180;-59
2022/01/23 06:07:42;;;;;;;46.93;22.53;;;7.60;99.90;;;;;;5075188;28;20682;-59
2022/01/23 06:10:18;;;;;;;49.53;23.80;;;7.60;99.90;;;;;;5078454;28;20235;-60
2022/01/23 06:12:44;;;;;;;45.30;23.73;;;7.70;99.90;;;;;;5074506;28;20192;-59
2022/01/23 06:15:10;;;;;;;50.33;23.73;;;7.40;99.90;;;;;;5054017;28;20666;-59
2022/01/23 06:17:37;;;;;;;44.27;21.70;;;7.40;99.90;;;;;;5092684;28;20230;-59
2022/01/23 06:20:03;;;;;;;48.53;24.17;;;7.20;99.90;;;;;;5060720;28;20516;-59
2022/01/23 06:22:29;;;;;;;47.07;22.07;;;7.10;99.90;;;;;;5073133;28;20196;-63
2022/01/23 06:24:55;;;;;;;42.93;22.53;;;7.20;99.90;;;;;;5073902;28;20601;-59
2022/01/23 06:27:20;;;;;;;44.30;22.77;;;7.30;99.90;;;;;;5092217;28;20671;-59
2022/01/23 06:29:46;;;;;;;45.43;22.87;;;7.40;99.90;;;;;;5066320;28;20185;-59
2022/01/23 06:32:13;;;;;;;43.17;22.57;;;7.30;99.90;;;;;;5062165;28;20172;-59
2022/01/23 06:34:38;;;;;;;49.17;24.07;;;7.30;99.90;;;;;;5080838;28;20292;-59
2022/01/23 06:37:05;;;;;;;47.10;23.37;;;7.40;99.90;;;;;;5088953;28;20272;-59
2022/01/23 06:39:31;;;;;;;41.43;22.80;;;7.80;99.90;;;;;;5092276;28;20173;-61
2022/01/23 06:41:57;;;;;;;48.83;24.73;;;7.90;99.90;;;;;;5092240;28;20181;-59
2022/01/23 06:44:23;;;;;;;53.47;23.80;;;7.80;99.90;;;;;;5092552;28;20446;-59
2022/01/23 06:46:49;;;;;;;49.17;22.93;;;7.70;99.90;;;;;;5057430;28;20264;-59
2022/01/23 06:49:15;;;;;;;47.83;21.57;;;7.90;99.90;;;;;;5092601;28;20180;-59
2022/01/23 06:51:42;;;;;;;45.53;21.93;;;7.80;99.90;;;;;;5092063;28;20189;-59
2022/01/23 06:54:09;;;;;;;46.10;22.53;;;7.70;99.90;;;;;;5092143;28;20307;-60
2022/01/23 06:56:35;;;;;;;47.97;24.23;;;7.40;99.90;;;;;;5074239;28;20188;-59
2022/01/23 06:59:01;;;;;;;46.90;24.10;;;7.10;99.90;;;;;;5093818;28;20189;-59
2022/01/23 07:01:27;;;;;;;46.97;23.37;;;7.10;99.90;;;;;;5076887;28;20597;-59
2022/01/23 07:03:52;;;;;;;46.27;24.23;;;7.30;99.90;;;;;;5096133;28;20187;-59
2022/01/23 07:06:18;;;;;;;44.30;23.53;;;7.60;99.90;;;;;;5096118;28;20584;-59
2022/01/23 07:08:44;;;;;;;46.87;23.43;;;7.60;99.90;;;;;;5077896;28;20189;-59
2022/01/23 07:11:10;;;;;;;54.63;25.80;;;7.60;99.90;;;;;;5095866;28;20235;-59
2022/01/23 07:13:35;;;;;;;55.27;25.13;;;7.60;99.90;;;;;;5087148;28;20717;-58
2022/01/23 07:16:06;;;;;;;48.63;23.20;;;7.60;99.90;;;;;;5076409;28;20220;-58
2022/01/23 07:18:32;;;;;;;50.37;25.50;;;7.50;99.90;;;;;;5077165;28;20181;-59
2022/01/23 07:20:57;;;;;;;43.40;22.70;;;7.50;99.90;;;;;;5077829;28;20275;-58
2022/01/23 07:23:23;;;;;;;44.10;22.63;;;7.50;99.90;;;;;;5094239;28;20223;-59
2022/01/23 07:25:50;;;;;;;47.80;24.93;;;7.50;99.90;;;;;;5095979;28;20181;-59
2022/01/23 07:28:19;;;;;;;53.43;26.27;;;7.60;99.90;;;;;;5058783;28;20184;-59
2022/01/23 07:30:53;;;;;;;56.93;27.80;;;7.60;99.90;;;;;;5076239;28;20250;-59
2022/01/23 07:33:19;;;;;;;56.93;27.43;;;7.60;99.90;;;;;;5067733;28;20206;-58
2022/01/23 07:35:46;;;;;;;50.10;24.00;;;7.60;99.90;;;;;;5095332;28;20635;-59
2022/01/23 07:38:16;;;;;;;49.33;24.67;;;7.60;99.90;;;;;;5096267;28;20177;-59
2022/01/23 07:40:43;;;;;;;51.80;24.73;;;7.60;99.90;;;;;;5095775;28;20189;-58
2022/01/23 07:43:09;;;;;;;43.67;23.57;;;7.80;99.90;;;;;;5066871;28;20268;-59
2022/01/23 07:45:35;;;;;;;50.40;24.17;;;7.90;99.90;;;;;;5072426;28;20284;-59
2022/01/23 07:48:00;;;;;;;52.23;23.13;;;7.80;99.90;;;;;;5065624;28;20275;-59
2022/01/23 07:50:26;;;;;;;46.50;22.03;;;7.60;99.90;;;;;;5066500;28;20215;-59
2022/01/23 07:52:51;;;;;;;50.87;23.37;;;7.60;99.90;;;;;;5092916;28;20192;-59
2022/01/23 07:55:17;;;;;;;46.93;25.83;;;7.70;99.90;;;;;;5063218;28;20213;-61
2022/01/23 07:57:43;;;;;;;54.00;24.93;;;7.60;99.90;;;;;;5061351;28;20653;-59
2022/01/23 08:00:11;;;;;;;46.67;23.90;;;7.60;99.90;;;;;;5076072;28;20213;-59
2022/01/23 08:02:36;;;;;;;46.40;25.40;;;7.70;99.90;;;;;;5087820;28;20185;-59
2022/01/23 08:05:04;;;;;;;49.80;25.63;;;7.70;99.90;;;;;;5071725;28;20672;-59
2022/01/23 08:09:59;;;;;;;43.10;21.80;;;7.50;99.90;;;;;;5095115;28;20586;-58
2022/01/23 08:12:26;;;;;;;51.33;22.83;;;7.40;99.90;;;;;;5094203;28;20204;-59
2022/01/23 08:14:52;;;;;;;47.77;24.33;;;7.50;99.90;;;;;;5094719;28;20579;-60
2022/01/23 08:17:19;;;;;;;45.97;23.60;;;7.50;99.90;;;;;;5076730;28;20596;-59
2022/01/23 08:19:45;;;;;;;46.83;24.30;;;7.30;99.90;;;;;;5076496;28;20272;-58
2022/01/23 08:22:11;;;;;;;47.57;25.27;;;7.30;99.90;;;;;;5093742;28;20185;-59
2022/01/23 08:24:37;;;;;;;41.53;23.43;;;7.40;99.90;;;;;;5060145;28;20184;-59
2022/01/23 08:27:03;;;;;;;48.17;24.20;;;7.60;99.90;;;;;;5095053;28;20563;-59
2022/01/23 08:29:29;;;;;;;52.03;26.17;;;7.70;99.90;;;;;;5062919;28;20189;-59
2022/01/23 08:31:55;;;;;;;51.73;27.37;;;7.70;99.90;;;;;;5057856;28;20549;-60
2022/01/23 08:34:20;;;;;;;51.00;24.63;;;7.60;99.90;;;;;;5072247;28;20215;-62
2022/01/23 08:36:46;;;;;;;44.53;23.40;;;7.40;99.90;;;;;;5094922;28;20191;-60
2022/01/23 08:39:12;;;;;;;49.13;24.43;;;7.20;99.90;;;;;;5065710;28;20222;-60
2022/01/23 08:41:50;;;;;;;48.33;24.00;;;7.20;99.90;;;;;;5094644;28;20708;-59
2022/01/23 08:44:24;;;;;;;53.67;25.43;;;7.40;99.90;;;;;;5075617;28;20185;-59
2022/01/23 08:46:49;;;;;;;46.30;24.90;;;7.50;99.90;;;;;;5082524;28;20177;-60
2022/01/23 08:49:17;;;;;;;46.33;25.57;;;7.40;99.90;;;;;;5094014;28;20670;-60
2022/01/23 08:51:44;;;;;;;52.37;25.30;;;7.50;99.90;;;;;;5092171;28;20638;-60
2022/01/23 08:54:10;;;;;;;48.63;24.40;;;7.70;99.90;;;;;;5080797;28;20215;-59
2022/01/23 08:56:35;;;;;;;46.40;25.60;;;7.80;99.90;;;;;;5095521;28;20180;-60
2022/01/23 08:59:02;;;;;;;48.23;24.47;;;7.80;99.90;;;;;;5075419;28;20272;-60
2022/01/23 09:01:28;;;;;;;54.10;27.90;;;7.80;99.90;;;;;;5076054;28;20181;-59
2022/01/23 09:03:54;;;;;;;51.47;26.23;;;7.70;99.90;;;;;;5094044;28;20634;-59
2022/01/23 09:06:20;;;;;;;53.70;27.43;;;7.80;99.90;;;;;;5075793;28;20204;-60
2022/01/23 09:08:46;;;;;;;50.63;25.07;;;7.70;99.90;;;;;;5091611;28;20629;-60
2022/01/23 09:14:10;;;;;;;45.80;22.10;;;7.40;99.90;;;;;;5089654;28;20250;-60
2022/01/23 09:16:43;;;;;;;46.90;23.57;;;7.20;99.90;;;;;;5069693;28;20187;-68
2022/01/23 09:19:10;;;;;;;49.07;24.40;;;7.30;99.90;;;;;;5092288;28;20203;-68
2022/01/23 09:21:37;;;;;;;50.27;23.60;;;7.50;99.90;;;;;;5058657;28;20185;-67
2022/01/23 09:24:04;;;;;;;57.03;26.63;;;7.70;99.90;;;;;;5089474;28;20184;-67
2022/01/23 09:26:30;;;;;;;46.10;24.17;;;7.80;99.90;;;;;;5062492;28;20643;-65
2022/01/23 09:28:59;;;;;;;47.80;24.93;;;8.00;99.90;;;;;;4721647;28;9999944;-65
2022/01/23 09:31:34;;;;;;;46.37;23.00;;;8.20;99.90;;;;;;5075408;28;20193;-68
2022/01/23 09:34:00;;;;;;;53.93;26.67;;;7.90;99.90;;;;;;5066802;28;20545;-70
2022/01/23 09:36:26;;;;;;;53.83;27.13;;;7.30;99.90;;;;;;5077569;28;20187;-69
2022/01/23 09:38:52;;;;;;;49.90;24.37;;;7.40;99.90;;;;;;5071092;28;20662;-65
2022/01/23 09:41:21;;;;;;;51.87;25.40;;;7.70;99.90;;;;;;5069864;28;20216;-67
2022/01/23 09:43:49;;;;;;;49.80;25.53;;;7.70;99.90;;;;;;5078945;28;20599;-65
2022/01/23 09:46:15;;;;;;;48.23;24.87;;;7.70;99.90;;;;;;5060898;28;20193;-65
2022/01/23 09:48:43;;;;;;;49.73;26.20;;;7.40;99.90;;;;;;5055990;28;20177;-68
2022/01/23 09:51:09;;;;;;;52.83;25.37;;;7.40;99.90;;;;;;5081325;28;20188;-67
2022/01/23 09:53:40;;;;;;;43.97;23.87;;;7.60;99.90;;;;;;5071822;28;20190;-66
2022/01/23 09:56:08;;;;;;;54.83;27.23;;;7.70;99.90;;;;;;5071666;28;20776;-66
2022/01/23 09:58:37;;;;;;;47.70;24.90;;;8.00;99.90;;;;;;5066021;28;20193;-66
2022/01/23 10:01:03;;;;;;;48.03;24.93;;;8.00;99.90;;;;;;5085551;28;20216;-67
2022/01/23 10:03:29;;;;;;;56.77;24.83;;;8.00;99.90;;;;;;5065187;28;20201;-68
2022/01/23 10:05:56;;;;;;;53.47;26.90;;;7.90;99.90;;;;;;5054503;28;20212;-69
2022/01/23 10:08:28;;;;;;;50.90;25.13;;;7.70;99.90;;;;;;5043801;28;20185;-67
2022/01/23 10:10:55;;;;;;;53.90;24.97;;;7.70;99.90;;;;;;5074876;28;20205;-67
2022/01/23 10:13:23;;;;;;;47.93;23.97;;;7.50;99.90;;;;;;5074418;28;20643;-66
2022/01/23 10:15:48;;;;;;;53.67;24.43;;;7.70;99.90;;;;;;5073978;28;20243;-69
2022/01/23 10:18:15;;;;;;;54.23;26.83;;;7.80;99.90;;;;;;5051450;28;20254;-66
2022/01/23 10:20:41;;;;;;;51.93;25.43;;;7.80;99.90;;;;;;5059735;28;20663;-66
2022/01/23 10:23:09;;;;;;;47.10;24.87;;;7.60;99.90;;;;;;5067755;28;20184;-66
2022/01/23 10:25:42;;;;;;;49.33;25.47;;;7.50;99.90;;;;;;5079054;28;20669;-66
2022/01/23 10:28:10;;;;;;;51.10;25.77;;;7.70;99.90;;;;;;5073574;28;20188;-68
2022/01/23 10:30:41;;;;;;;52.97;26.93;;;7.90;99.90;;;;;;5085267;28;20188;-66
2022/01/23 10:33:14;;;;;;;49.53;24.43;;;7.90;99.90;;;;;;5072568;28;20181;-66
2022/01/23 10:35:58;;;;;;;48.90;23.83;;;7.70;99.90;;;;;;5076761;28;20204;-66
2022/01/23 10:38:49;;;;;;;52.03;25.40;;;7.70;99.90;;;;;;5069772;28;20189;-68
2022/01/23 10:49:49;;;;;;;50.53;24.53;;;8.30;99.90;;;;;;5077505;28;20531;-71
2022/01/23 10:52:28;;;;;;;48.80;25.47;;;8.50;99.90;;;;;;5069380;28;20193;-67
2022/01/23 10:54:54;;;;;;;48.87;26.67;;;8.20;99.90;;;;;;5060217;28;20216;-68
2022/01/23 10:57:20;;;;;;;47.53;24.97;;;8.20;99.90;;;;;;5080376;28;20181;-67
2022/01/23 10:59:52;;;;;;;48.40;25.20;;;7.90;99.90;;;;;;5078369;28;20170;-66
2022/01/23 11:02:21;;;;;;;58.07;26.50;;;7.80;99.90;;;;;;5068227;28;20177;-69
2022/01/23 11:04:50;;;;;;;48.43;24.43;;;7.90;99.90;;;;;;5071479;28;20177;-63
2022/01/23 11:07:16;;;;;;;49.57;23.83;;;7.60;99.90;;;;;;5083956;28;20181;-67
2022/01/23 11:09:42;;;;;;;51.57;24.20;;;7.60;99.90;;;;;;5063093;28;20193;-67
2022/01/23 11:12:26;;;;;;;49.37;24.13;;;7.60;99.90;;;;;;5069659;28;20189;-67
2022/01/23 11:17:53;;;;;;;54.10;26.63;;;7.50;99.90;;;;;;5073269;28;20288;-67
2022/01/23 11:20:51;;;;;;;52.67;26.60;;;7.40;99.90;;;;;;5057937;28;20231;-65
2022/01/23 11:23:27;;;;;;;51.97;24.97;;;7.40;99.90;;;;;;5025737;28;20202;-67
2022/01/23 11:25:52;;;;;;;48.97;24.80;;;7.40;99.90;;;;;;5073026;28;20181;-67
2022/01/23 11:28:19;;;;;;;51.17;25.60;;;7.70;99.90;;;;;;5072394;28;20182;-67
2022/01/23 11:30:48;;;;;;;52.00;25.93;;;7.90;99.90;;;;;;5064593;28;20259;-67
2022/01/23 11:33:19;;;;;;;49.33;25.07;;;8.10;99.90;;;;;;5070395;28;20181;-68
2022/01/23 11:35:45;;;;;;;52.83;25.67;;;8.10;99.90;;;;;;5076616;28;20214;-67
2022/01/23 11:38:15;;;;;;;53.00;25.90;;;8.10;99.90;;;;;;5085734;28;20635;-70
2022/01/23 11:54:40;;;;;;;51.57;25.93;;;8.20;99.90;;;;;;5083211;28;20289;-65
2022/01/23 11:57:37;;;;;;;59.03;28.80;;;8.20;99.90;;;;;;5065610;28;20264;-67
2022/01/23 12:00:15;;;;;;;51.13;25.03;;;8.40;99.90;;;;;;5086214;28;20178;-67
2022/01/23 12:02:43;;;;;;;53.53;26.00;;;8.90;99.90;;;;;;5071348;28;20234;-68
2022/01/23 12:05:12;;;;;;;49.93;26.03;;;8.80;99.90;;;;;;5089805;28;20230;-69
2022/01/23 12:07:40;;;;;;;50.53;24.37;;;8.70;99.90;;;;;;5093643;28;20212;-68
2022/01/23 12:10:24;;;;;;;47.47;25.20;;;8.60;99.90;;;;;;5069660;28;20189;-66
2022/01/23 12:13:32;;;;;;;46.23;25.17;;;8.70;99.90;;;;;;5073244;28;20220;-67
2022/01/23 12:18:42;;;;;;;45.23;24.80;;;8.50;99.90;;;;;;5060749;28;20610;-67
2022/01/23 12:21:29;;;;;;;50.37;25.63;;;8.40;99.90;;;;;;5085089;28;20188;-68
2022/01/23 12:24:05;;;;;;;54.07;27.03;;;8.60;99.90;;;;;;5077481;28;20181;-67
2022/01/23 12:26:31;;;;;;;53.17;25.30;;;8.90;99.90;;;;;;5069849;28;20200;-66
2022/01/23 12:29:23;;;;;;;56.30;23.93;;;8.90;99.90;;;;;;5083435;28;20181;-67
2022/01/23 12:32:09;;;;;;;45.60;25.23;;;8.90;99.90;;;;;;5075132;28;20193;-65
2022/01/23 12:34:50;;;;;;;45.67;26.13;;;8.90;99.90;;;;;;5077452;28;20223;-66
2022/01/23 12:37:16;;;;;;;45.30;24.03;;;9.00;99.90;;;;;;5091935;28;20619;-67
2022/01/23 12:39:42;;;;;;;54.53;28.13;;;8.80;99.90;;;;;;5069812;28;20209;-70
2022/01/23 12:42:08;;;;;;;50.47;26.13;;;8.50;99.90;;;;;;5092568;28;20637;-68
2022/01/23 12:44:39;;;;;;;52.30;26.80;;;8.30;99.90;;;;;;5056932;28;20203;-68
2022/01/23 12:47:16;;;;;;;51.47;25.33;;;8.20;99.90;;;;;;5060805;28;20181;-69
2022/01/23 12:49:52;;;;;;;51.50;25.07;;;8.30;99.90;;;;;;5080102;28;20177;-69
2022/01/23 12:52:21;;;;;;;51.40;25.73;;;8.40;99.90;;;;;;5078793;28;20234;-68
2022/01/23 12:54:46;;;;;;;44.73;24.60;;;8.20;99.90;;;;;;5071919;28;20205;-71
2022/01/23 12:57:17;;;;;;;39.17;22.03;;;8.20;99.90;;;;;;5071901;28;20641;-74
2022/01/23 12:59:51;;;;;;;32.10;18.27;;;8.50;99.90;;;;;;5081553;28;20181;-69
2022/01/23 13:02:19;;;;;;;34.70;17.97;;;8.60;99.90;;;;;;5090738;28;20185;-68
2022/01/23 13:04:53;;;;;;;33.27;18.30;;;8.60;99.90;;;;;;5079973;28;20213;-69
2022/01/23 13:07:46;;;;;;;36.43;18.97;;;8.70;99.90;;;;;;5081050;28;20567;-66
2022/01/23 13:13:04;;;;;;;29.37;14.87;;;9.00;99.90;;;;;;5064303;28;20204;-68
2022/01/23 13:31:51;;;;;;;24.27;13.57;;;9.10;99.90;;;;;;5093171;28;20195;-66
2022/01/23 13:34:40;;;;;;;20.67;13.47;;;9.20;99.90;;;;;;5071173;28;20266;-67
2022/01/23 13:37:34;;;;;;;17.80;11.20;;;9.30;99.90;;;;;;5083070;28;20181;-66
2022/01/23 13:40:14;;;;;;;17.43;11.03;;;9.30;99.90;;;;;;5089842;28;20605;-66
2022/01/23 13:59:51;;;;;;;21.70;11.30;;;9.30;99.90;;;;;;5084532;28;20330;-67
2022/01/23 14:02:23;;;;;;;16.77;11.00;;;9.10;99.90;;;;;;5075034;28;20218;-67
2022/01/23 14:04:52;;;;;;;21.83;11.90;;;8.90;99.90;;;;;;5083170;28;20645;-67
2022/01/23 14:07:28;;;;;;;20.33;11.73;;;9.00;99.90;;;;;;5075065;28;20181;-67
2022/01/23 14:09:57;;;;;;;18.87;11.10;;;9.20;99.90;;;;;;5079158;28;20653;-68
2022/01/23 14:12:24;;;;;;;21.63;12.97;;;9.20;99.90;;;;;;5074561;28;20192;-69
2022/01/23 14:15:05;;;;;;;17.93;10.30;;;9.20;99.90;;;;;;5069994;28;20212;-67
2022/01/23 14:17:35;;;;;;;14.40;9.23;;;9.20;99.90;;;;;;5060582;28;20255;-70
2022/01/23 14:20:12;;;;;;;16.90;9.20;;;9.10;99.90;;;;;;5091576;28;20176;-69
2022/01/23 14:22:42;;;;;;;17.07;10.03;;;9.10;99.90;;;;;;5092268;28;20215;-68
2022/01/23 14:25:19;;;;;;;16.27;8.90;;;9.00;99.90;;;;;;5092411;28;20180;-70
2022/01/23 14:28:10;;;;;;;14.40;9.40;;;9.00;99.90;;;;;;5057719;28;20180;-70
2022/01/23 14:30:45;;;;;;;16.67;9.07;;;9.00;99.90;;;;;;5090553;28;20192;-70
2022/01/23 14:33:19;;;;;;;19.50;9.77;;;9.00;99.90;;;;;;5078010;28;20173;-68
2022/01/23 14:35:46;;;;;;;23.77;11.80;;;9.00;99.90;;;;;;5072279;28;20253;-67
2022/01/23 14:38:18;;;;;;;22.73;10.90;;;9.00;99.90;;;;;;5039870;28;20257;-66
2022/01/23 14:40:56;;;;;;;16.10;10.27;;;9.00;99.90;;;;;;5072564;28;20208;-66
2022/01/23 14:43:28;;;;;;;20.13;10.90;;;8.70;99.90;;;;;;5072502;28;20185;-67
2022/01/23 14:45:56;;;;;;;22.07;10.70;;;8.60;99.90;;;;;;5068905;28;20190;-67
2022/01/23 14:48:22;;;;;;;13.27;8.97;;;8.60;99.90;;;;;;5054611;28;20542;-68
2022/01/23 14:50:52;;;;;;;15.63;9.47;;;8.70;99.90;;;;;;5072649;28;20189;-66
2022/01/23 14:53:20;;;;;;;15.83;9.73;;;8.60;99.90;;;;;;5080325;28;20181;-68
2022/01/23 14:55:52;;;;;;;16.40;8.13;;;8.50;99.90;;;;;;5075582;28;20225;-68
2022/01/23 14:58:20;;;;;;;18.10;8.97;;;8.50;99.90;;;;;;4708071;28;10001362;-70
2022/01/23 15:00:52;;;;;;;17.33;11.13;;;8.50;99.90;;;;;;5083327;28;20181;-68
2022/01/23 15:03:19;;;;;;;16.27;9.63;;;8.70;99.90;;;;;;5082244;28;20270;-67
2022/01/23 15:05:45;;;;;;;15.63;8.97;;;8.80;99.90;;;;;;5058331;28;20185;-66
2022/01/23 15:08:15;;;;;;;23.77;13.00;;;8.70;99.90;;;;;;5072629;28;20193;-68
2022/01/23 15:10:44;;;;;;;26.50;14.23;;;8.70;99.90;;;;;;5079877;28;20281;-65
2022/01/23 15:13:11;;;;;;;24.67;13.30;;;8.60;99.90;;;;;;5060774;28;20184;-67
2022/01/23 15:15:37;;;;;;;29.53;15.30;;;8.40;99.90;;;;;;5072925;28;20212;-63
2022/01/23 15:18:03;;;;;;;26.27;13.63;;;8.40;99.90;;;;;;5059057;28;20218;-67
2022/01/23 15:20:33;;;;;;;23.57;12.47;;;8.30;99.90;;;;;;5080451;28;20189;-69
2022/01/23 15:23:02;;;;;;;20.20;10.93;;;8.30;99.90;;;;;;5074584;28;20266;-66
2022/01/23 15:25:29;;;;;;;16.83;9.23;;;8.40;99.90;;;;;;5091235;28;20238;-65
2022/01/23 15:27:55;;;;;;;13.33;9.20;;;8.50;99.90;;;;;;5084813;28;20195;-66
2022/01/23 15:30:23;;;;;;;15.97;8.70;;;8.60;99.90;;;;;;5067898;28;20189;-65
2022/01/23 15:32:51;;;;;;;15.47;8.17;;;8.70;99.90;;;;;;5081208;28;20546;-69
2022/01/23 15:35:17;;;;;;;14.23;7.97;;;8.60;99.90;;;;;;5056595;28;20299;-67
2022/01/23 15:37:44;;;;;;;22.90;10.77;;;8.50;99.90;;;;;;5088318;28;20182;-67
2022/01/23 15:40:11;;;;;;;21.53;12.43;;;8.50;99.90;;;;;;5064009;28;20234;-68
2022/01/23 15:42:38;;;;;;;27.73;14.40;;;8.50;99.90;;;;;;5073879;28;20664;-68
2022/01/23 15:45:05;;;;;;;24.70;14.67;;;8.60;99.90;;;;;;5088490;28;20193;-68
2022/01/23 15:47:32;;;;;;;29.77;15.10;;;8.70;99.90;;;;;;5051832;28;20186;-68
2022/01/23 15:49:57;;;;;;;24.43;14.40;;;8.50;99.90;;;;;;5078489;28;20213;-68
2022/01/23 15:52:23;;;;;;;30.23;13.83;;;8.50;99.90;;;;;;5073279;28;20224;-67
2022/01/23 15:54:49;;;;;;;25.33;13.87;;;8.40;99.90;;;;;;5071895;28;20209;-67
2022/01/23 15:57:15;;;;;;;24.23;12.43;;;8.40;99.90;;;;;;5061217;28;20638;-67
2022/01/23 15:59:42;;;;;;;25.53;12.33;;;8.30;99.90;;;;;;5053679;28;20228;-67
2022/01/23 16:02:08;;;;;;;17.53;9.47;;;8.30;99.90;;;;;;5084502;28;20611;-67
2022/01/23 16:04:38;;;;;;;18.10;10.10;;;8.30;99.90;;;;;;5058278;28;20568;-67
2022/01/23 16:07:05;;;;;;;17.03;9.70;;;8.20;99.90;;;;;;5090488;28;20192;-68
2022/01/23 16:09:31;;;;;;;17.10;9.63;;;8.20;99.90;;;;;;5071382;28;20189;-67
2022/01/23 16:11:57;;;;;;;20.63;10.40;;;8.20;99.90;;;;;;5075781;28;20654;-68
2022/01/23 16:14:23;;;;;;;27.73;12.87;;;8.20;99.90;;;;;;5059050;28;20239;-68
2022/01/23 16:16:49;;;;;;;22.67;13.87;;;8.00;99.90;;;;;;5071494;28;20181;-67
2022/01/23 16:19:15;;;;;;;30.47;15.07;;;8.00;99.90;;;;;;5062020;28;20185;-64
2022/01/23 16:21:44;;;;;;;24.70;12.50;;;8.10;99.90;;;;;;5063824;28;20189;-64
2022/01/23 16:24:11;;;;;;;25.60;13.27;;;7.90;99.90;;;;;;5067532;28;20196;-64